Marine City, Michigan
Current Conditions -  °F | °C
As of 3:37 AM on Saturday 22 Nov 2014 (Local Time) from KPHN Reporting Station
Scattered Clouds Scattered Clouds  
Wind Chill: 16°   Ceiling: Unl
Heat Index: 27°   Visibility: 10mi
Dew Point: 19°   Wind: 12mph
Humidity: 74%   Direction: 190°S
Pressure: 30.22"   Gusts: NA
Location:  42.72°N, 82.49°W
Report Text: KPHN 220837Z AUTO 19010KT 10SM SCT055 SCT120 M03/M07 A3022 RMK AO2
Loading
Personal Weather Stations






























Interactive Weather Map New forecast layout! Learn more

10-Day Weather Forecast

Advertisements
Track Severe Weather on mobile